Time;durP1;ratioP1;P1;durP2;ratioP2;P2;SDS_P1;SDS_P2;PMS_P1;PMS_P2;Temp;Humidity;BMP_temperature;BMP_pressure;BME280_temperature;BME280_humidity;BME280_pressure;Samples;Min_cycle;Max_cycle;Signal;HPM_P1;HPM_P2
2023/12/11 00:01:45;;;;;;;1.30;0.60;;;;;;;;;;5079398;28;20437;-80
2023/12/11 00:04:11;;;;;;;1.23;0.40;;;;;;;;;;5079412;28;20390;-80
2023/12/11 00:06:38;;;;;;;1.70;0.60;;;;;;;;;;5079022;28;20418;-80
2023/12/11 00:09:04;;;;;;;0.80;0.30;;;;;;;;;;5079106;28;20429;-80
2023/12/11 00:11:30;;;;;;;1.50;0.45;;;;;;;;;;5078591;28;20395;-80
2023/12/11 00:13:56;;;;;;;3.65;0.70;;;;;;;;;;5078514;28;20449;-80
2023/12/11 00:16:22;;;;;;;2.17;0.60;;;;;;;;;;5078667;28;20391;-80
2023/12/11 00:18:48;;;;;;;1.02;0.40;;;;;;;;;;5079005;28;20391;-80
2023/12/11 00:21:16;;;;;;;1.73;0.45;;;;;;;;;;5078683;28;20758;-80
2023/12/11 00:23:42;;;;;;;1.30;0.60;;;;;;;;;;5078961;28;20384;-80
2023/12/11 00:26:08;;;;;;;2.33;0.63;;;;;;;;;;5078920;28;20734;-80
2023/12/11 00:28:34;;;;;;;1.50;0.75;;;;;;;;;;5078702;28;20875;-80
2023/12/11 00:31:01;;;;;;;1.55;0.80;;;;;;;;;;5078989;28;20388;-80
2023/12/11 00:33:28;;;;;;;1.58;0.70;;;;;;;;;;5078918;28;20454;-80
2023/12/11 00:35:54;;;;;;;2.35;0.80;;;;;;;;;;5078383;28;20384;-80
2023/12/11 00:38:20;;;;;;;3.05;0.50;;;;;;;;;;5078846;28;20380;-80
2023/12/11 00:40:46;;;;;;;1.63;0.47;;;;;;;;;;5079235;28;20480;-80
2023/12/11 00:43:15;;;;;;;2.23;0.43;;;;;;;;;;5097910;28;20370;-80
2023/12/11 00:45:41;;;;;;;1.83;0.70;;;;;;;;;;5099307;28;20407;-80
2023/12/11 00:48:07;;;;;;;1.10;0.85;;;;;;;;;;5098384;28;20402;-80
2023/12/11 00:50:34;;;;;;;2.00;0.90;;;;;;;;;;5093806;28;20922;-80
2023/12/11 00:53:00;;;;;;;1.40;0.82;;;;;;;;;;5059368;28;20386;-80
2023/12/11 00:55:26;;;;;;;2.63;1.00;;;;;;;;;;5058319;28;20395;-80
2023/12/11 00:57:52;;;;;;;0.98;0.60;;;;;;;;;;5057874;28;20382;-80
2023/12/11 01:00:18;;;;;;;1.10;0.50;;;;;;;;;;5057786;28;20397;-80
2023/12/11 01:02:45;;;;;;;1.35;0.60;;;;;;;;;;5056846;28;20381;-80
2023/12/11 01:05:12;;;;;;;1.67;0.60;;;;;;;;;;5058226;28;20383;-80
2023/12/11 01:07:38;;;;;;;1.20;0.60;;;;;;;;;;5070473;28;20371;-80
2023/12/11 01:10:04;;;;;;;1.85;0.85;;;;;;;;;;5077956;28;20387;-80
2023/12/11 01:12:30;;;;;;;1.73;0.60;;;;;;;;;;5078314;28;20386;-80
2023/12/11 01:14:56;;;;;;;1.38;0.75;;;;;;;;;;5077763;28;20491;-80
2023/12/11 01:17:22;;;;;;;1.27;0.60;;;;;;;;;;5077561;28;20928;-80
2023/12/11 01:19:48;;;;;;;1.00;0.70;;;;;;;;;;5078148;28;20488;-80
2023/12/11 01:22:14;;;;;;;0.90;0.70;;;;;;;;;;5077851;28;20468;-80
2023/12/11 01:24:40;;;;;;;0.50;0.40;;;;;;;;;;5077362;28;20796;-80
2023/12/11 01:27:06;;;;;;;1.15;0.57;;;;;;;;;;5077898;28;20480;-80
2023/12/11 01:29:32;;;;;;;0.70;0.40;;;;;;;;;;5078085;28;20376;-80
2023/12/11 01:31:58;;;;;;;0.55;0.45;;;;;;;;;;5077306;28;20387;-80
2023/12/11 01:34:24;;;;;;;1.90;0.50;;;;;;;;;;5077752;28;20383;-80
2023/12/11 01:36:50;;;;;;;1.00;0.50;;;;;;;;;;5077727;28;20448;-80
2023/12/11 01:39:16;;;;;;;1.38;0.65;;;;;;;;;;5077162;28;20826;-80
2023/12/11 01:41:42;;;;;;;0.73;0.60;;;;;;;;;;5077468;28;20490;-80
2023/12/11 01:44:08;;;;;;;0.90;0.53;;;;;;;;;;5095501;28;20570;-80
2023/12/11 01:46:34;;;;;;;1.00;0.45;;;;;;;;;;5097058;28;20446;-80
2023/12/11 01:49:01;;;;;;;0.68;0.43;;;;;;;;;;5096981;28;20386;-80
2023/12/11 01:51:27;;;;;;;1.75;0.65;;;;;;;;;;5097111;28;20382;-80
2023/12/11 01:53:53;;;;;;;1.10;0.52;;;;;;;;;;5097081;28;20374;-80
2023/12/11 01:56:20;;;;;;;0.65;0.30;;;;;;;;;;5097329;28;20382;-80
2023/12/11 01:58:46;;;;;;;0.38;0.38;;;;;;;;;;5096897;28;20427;-80
2023/12/11 02:01:12;;;;;;;0.77;0.40;;;;;;;;;;5096856;28;20394;-80
2023/12/11 02:03:39;;;;;;;1.40;0.50;;;;;;;;;;5097368;28;20383;-80
2023/12/11 02:06:05;;;;;;;1.48;0.50;;;;;;;;;;5096548;28;20378;-80
2023/12/11 02:08:33;;;;;;;0.70;0.52;;;;;;;;;;5096931;28;20730;-80
2023/12/11 02:11:00;;;;;;;0.50;0.40;;;;;;;;;;5097587;28;20461;-80
2023/12/11 02:13:26;;;;;;;0.75;0.40;;;;;;;;;;5096190;28;20729;-80
2023/12/11 02:15:52;;;;;;;0.82;0.50;;;;;;;;;;5097297;28;20427;-80
2023/12/11 02:18:18;;;;;;;0.82;0.40;;;;;;;;;;5096814;28;20378;-80
2023/12/11 02:20:45;;;;;;;0.77;0.50;;;;;;;;;;5096799;28;20884;-80
2023/12/11 02:23:14;;;;;;;1.67;0.85;;;;;;;;;;5096700;28;20717;-80
2023/12/11 02:25:41;;;;;;;2.13;0.50;;;;;;;;;;5097039;28;20374;-80
2023/12/11 02:28:07;;;;;;;0.68;0.50;;;;;;;;;;5096841;28;20773;-80
2023/12/11 02:30:35;;;;;;;1.10;0.50;;;;;;;;;;5096100;28;20415;-80
2023/12/11 02:33:01;;;;;;;2.05;0.50;;;;;;;;;;5096677;28;20381;-80
2023/12/11 02:35:27;;;;;;;0.70;0.50;;;;;;;;;;5096778;28;20378;-80
2023/12/11 02:37:53;;;;;;;0.57;0.47;;;;;;;;;;5096311;28;20782;-80
2023/12/11 02:40:19;;;;;;;0.50;0.40;;;;;;;;;;5096913;28;20405;-80
2023/12/11 02:42:47;;;;;;;1.27;0.47;;;;;;;;;;5089760;28;20379;-80
2023/12/11 02:45:13;;;;;;;1.10;0.50;;;;;;;;;;5075146;28;20429;-80
2023/12/11 02:47:39;;;;;;;0.50;0.40;;;;;;;;;;5075538;28;20404;-80
2023/12/11 02:50:05;;;;;;;1.10;0.70;;;;;;;;;;5058830;28;20404;-80
2023/12/11 02:52:31;;;;;;;0.57;0.50;;;;;;;;;;5056069;28;20743;-80
2023/12/11 02:54:57;;;;;;;0.32;0.30;;;;;;;;;;5056272;28;20381;-80
2023/12/11 02:57:23;;;;;;;1.42;0.50;;;;;;;;;;5056229;28;20385;-80
2023/12/11 02:59:49;;;;;;;0.70;0.70;;;;;;;;;;5055573;28;20794;-80
2023/12/11 03:02:15;;;;;;;0.52;0.40;;;;;;;;;;5056036;28;20777;-80
2023/12/11 03:04:41;;;;;;;1.00;0.52;;;;;;;;;;5059466;28;20391;-80
2023/12/11 03:07:07;;;;;;;0.70;0.50;;;;;;;;;;5075355;28;20398;-80
2023/12/11 03:09:33;;;;;;;0.75;0.60;;;;;;;;;;5075693;28;20379;-80
2023/12/11 03:11:59;;;;;;;0.60;0.60;;;;;;;;;;5075575;28;20379;-80
2023/12/11 03:14:25;;;;;;;0.97;0.57;;;;;;;;;;5075193;28;20469;-80
2023/12/11 03:16:51;;;;;;;1.15;0.60;;;;;;;;;;5074955;28;20876;-80
2023/12/11 03:19:17;;;;;;;0.45;0.43;;;;;;;;;;5075278;28;20376;-80
2023/12/11 03:21:43;;;;;;;0.60;0.40;;;;;;;;;;5075310;28;20403;-80
2023/12/11 03:24:09;;;;;;;0.85;0.50;;;;;;;;;;5075265;28;20380;-80
2023/12/11 03:26:35;;;;;;;0.65;0.50;;;;;;;;;;5074861;28;20459;-80
2023/12/11 03:29:01;;;;;;;0.70;0.43;;;;;;;;;;5075137;28;20445;-80
2023/12/11 03:31:27;;;;;;;0.60;0.30;;;;;;;;;;5074723;28;20471;-80
2023/12/11 03:33:53;;;;;;;0.40;0.40;;;;;;;;;;5074824;28;20463;-80
2023/12/11 03:36:19;;;;;;;0.50;0.40;;;;;;;;;;5075292;28;20725;-80
2023/12/11 03:38:45;;;;;;;0.80;0.40;;;;;;;;;;5075164;28;20470;-80
2023/12/11 03:41:11;;;;;;;0.90;0.30;;;;;;;;;;5074618;28;20395;-80
2023/12/11 03:43:37;;;;;;;0.37;0.30;;;;;;;;;;5074728;28;20791;-80
2023/12/11 03:46:03;;;;;;;0.32;0.32;;;;;;;;;;5075839;28;20406;-80
2023/12/11 03:48:30;;;;;;;0.20;0.20;;;;;;;;;;5074417;28;20407;-80
2023/12/11 03:50:56;;;;;;;0.28;0.22;;;;;;;;;;5075494;28;20402;-80
2023/12/11 03:53:22;;;;;;;0.30;0.30;;;;;;;;;;5074612;28;20375;-80
2023/12/11 03:55:48;;;;;;;0.75;0.40;;;;;;;;;;5075147;28;20877;-80
2023/12/11 03:58:15;;;;;;;0.35;0.28;;;;;;;;;;5075032;28;20383;-80
2023/12/11 04:00:41;;;;;;;0.50;0.30;;;;;;;;;;5074798;28;20452;-80
2023/12/11 04:03:07;;;;;;;1.55;0.38;;;;;;;;;;5074829;28;20439;-80
2023/12/11 04:05:33;;;;;;;0.40;0.30;;;;;;;;;;5074753;28;20372;-80
2023/12/11 04:07:59;;;;;;;0.60;0.30;;;;;;;;;;5074454;28;20403;-80
2023/12/11 04:10:25;;;;;;;0.30;0.30;;;;;;;;;;5074919;28;20458;-80
2023/12/11 04:12:51;;;;;;;0.30;0.30;;;;;;;;;;5074476;28;20396;-80
2023/12/11 04:15:17;;;;;;;0.73;0.43;;;;;;;;;;5074471;28;20469;-80
2023/12/11 04:17:43;;;;;;;0.22;0.22;;;;;;;;;;5074447;28;20384;-81
2023/12/11 04:20:10;;;;;;;0.43;0.32;;;;;;;;;;5073995;28;20407;-80
2023/12/11 04:22:36;;;;;;;0.20;0.20;;;;;;;;;;5074080;28;20380;-80
2023/12/11 04:25:02;;;;;;;0.50;0.30;;;;;;;;;;5074058;28;20417;-80
2023/12/11 04:27:28;;;;;;;0.30;0.20;;;;;;;;;;5074835;28;20376;-80
2023/12/11 04:29:54;;;;;;;0.80;0.32;;;;;;;;;;5075011;28;20384;-80
2023/12/11 04:32:20;;;;;;;0.90;0.60;;;;;;;;;;5074717;28;20418;-80
2023/12/11 04:34:46;;;;;;;0.88;0.63;;;;;;;;;;5074966;28;20376;-80
2023/12/11 04:37:12;;;;;;;1.50;0.90;;;;;;;;;;5078096;28;20498;-80
2023/12/11 04:39:38;;;;;;;1.08;0.85;;;;;;;;;;5077831;28;20744;-80
2023/12/11 04:42:05;;;;;;;0.95;0.70;;;;;;;;;;5077780;28;20386;-80
2023/12/11 04:44:31;;;;;;;0.90;0.65;;;;;;;;;;5078250;28;20861;-80
2023/12/11 04:46:57;;;;;;;0.80;0.63;;;;;;;;;;5076083;28;20403;-80
2023/12/11 04:49:23;;;;;;;0.73;0.55;;;;;;;;;;5077784;28;20901;-80
2023/12/11 04:51:49;;;;;;;1.98;0.70;;;;;;;;;;5078014;28;20760;-80
2023/12/11 04:54:17;;;;;;;0.43;0.40;;;;;;;;;;5076867;28;20469;-80
2023/12/11 04:56:42;;;;;;;0.65;0.47;;;;;;;;;;5077416;28;20376;-80
2023/12/11 04:59:08;;;;;;;0.70;0.40;;;;;;;;;;5077868;28;20752;-80
2023/12/11 05:01:34;;;;;;;0.47;0.40;;;;;;;;;;5077815;28;20399;-80
2023/12/11 05:04:00;;;;;;;1.17;0.70;;;;;;;;;;5077962;28;20441;-80
2023/12/11 05:06:26;;;;;;;0.50;0.50;;;;;;;;;;5077814;28;20909;-80
2023/12/11 05:08:52;;;;;;;0.50;0.50;;;;;;;;;;5078128;28;20380;-80
2023/12/11 05:11:18;;;;;;;0.50;0.50;;;;;;;;;;5078301;28;20372;-80
2023/12/11 05:13:45;;;;;;;0.43;0.43;;;;;;;;;;5078447;28;20861;-80
2023/12/11 05:16:11;;;;;;;0.65;0.50;;;;;;;;;;5077944;28;20391;-80
2023/12/11 05:18:38;;;;;;;0.73;0.50;;;;;;;;;;5077824;28;20386;-80
2023/12/11 05:21:08;;;;;;;1.38;0.47;;;;;;;;;;5077686;28;20423;-80
2023/12/11 05:23:34;;;;;;;0.65;0.47;;;;;;;;;;5077889;28;20386;-80
2023/12/11 05:26:00;;;;;;;0.50;0.50;;;;;;;;;;5077527;28;20416;-80
2023/12/11 05:28:26;;;;;;;0.50;0.50;;;;;;;;;;5077721;28;20845;-80
2023/12/11 05:30:52;;;;;;;0.65;0.57;;;;;;;;;;5078246;28;20776;-80
2023/12/11 05:33:18;;;;;;;0.75;0.47;;;;;;;;;;5077863;28;20879;-80
2023/12/11 05:35:44;;;;;;;0.90;0.52;;;;;;;;;;5077873;28;20391;-80
2023/12/11 05:38:10;;;;;;;0.95;0.40;;;;;;;;;;5077255;28;20383;-80
2023/12/11 05:40:36;;;;;;;0.60;0.32;;;;;;;;;;5077703;28;20399;-80
2023/12/11 05:43:02;;;;;;;0.60;0.50;;;;;;;;;;5077680;28;20388;-80
2023/12/11 05:45:28;;;;;;;0.60;0.60;;;;;;;;;;5078101;28;20375;-80
2023/12/11 05:47:54;;;;;;;0.70;0.40;;;;;;;;;;5077523;28;20499;-80
2023/12/11 05:50:20;;;;;;;0.65;0.55;;;;;;;;;;5077179;28;20392;-80
2023/12/11 05:52:46;;;;;;;0.73;0.30;;;;;;;;;;5076727;28;20435;-81
2023/12/11 05:55:12;;;;;;;0.95;0.30;;;;;;;;;;5076561;28;20388;-80
2023/12/11 05:57:38;;;;;;;0.40;0.30;;;;;;;;;;5076854;28;20391;-82
2023/12/11 06:00:05;;;;;;;0.32;0.30;;;;;;;;;;5076200;28;20407;-81
2023/12/11 06:02:31;;;;;;;0.30;0.30;;;;;;;;;;5076526;28;20395;-80
2023/12/11 06:04:57;;;;;;;0.40;0.40;;;;;;;;;;5076257;28;20372;-81
2023/12/11 06:07:23;;;;;;;0.38;0.30;;;;;;;;;;5076590;28;20415;-81
2023/12/11 06:09:49;;;;;;;0.38;0.30;;;;;;;;;;5075952;28;20376;-81
2023/12/11 06:12:16;;;;;;;2.08;0.40;;;;;;;;;;5076430;28;20430;-81
2023/12/11 06:14:42;;;;;;;0.70;0.40;;;;;;;;;;5076775;28;20808;-81
2023/12/11 06:17:08;;;;;;;0.60;0.50;;;;;;;;;;5076981;28;20376;-81
2023/12/11 06:19:34;;;;;;;0.80;0.40;;;;;;;;;;5076960;28;20407;-81
2023/12/11 06:22:00;;;;;;;0.60;0.30;;;;;;;;;;5076495;28;20424;-81
2023/12/11 06:24:26;;;;;;;0.43;0.30;;;;;;;;;;5077211;28;20385;-81
2023/12/11 06:26:52;;;;;;;0.63;0.40;;;;;;;;;;5076360;28;20402;-81
2023/12/11 06:29:18;;;;;;;1.10;0.40;;;;;;;;;;5076703;28;20848;-81
2023/12/11 06:31:44;;;;;;;0.50;0.50;;;;;;;;;;5076208;28;20952;-81
2023/12/11 06:34:10;;;;;;;0.70;0.50;;;;;;;;;;5076741;28;20419;-81
2023/12/11 06:36:36;;;;;;;0.43;0.43;;;;;;;;;;5076309;28;20408;-81
2023/12/11 06:39:02;;;;;;;0.50;0.50;;;;;;;;;;5076448;28;20420;-81
2023/12/11 06:41:28;;;;;;;0.60;0.43;;;;;;;;;;5075896;28;21004;-81
2023/12/11 06:43:57;;;;;;;0.95;0.40;;;;;;;;;;5076288;28;20375;-81
2023/12/11 06:46:25;;;;;;;0.53;0.43;;;;;;;;;;5072923;28;20383;-81
2023/12/11 06:48:51;;;;;;;1.17;0.60;;;;;;;;;;5084312;28;20405;-81
2023/12/11 06:51:17;;;;;;;0.80;0.60;;;;;;;;;;5096333;28;20376;-81
2023/12/11 06:53:43;;;;;;;1.47;0.70;;;;;;;;;;5092644;28;20441;-81
2023/12/11 06:56:09;;;;;;;0.80;0.60;;;;;;;;;;5076149;28;20380;-81
2023/12/11 06:58:35;;;;;;;0.50;0.50;;;;;;;;;;5076074;28;20430;-81
2023/12/11 07:01:01;;;;;;;0.40;0.40;;;;;;;;;;5075996;28;20399;-81
2023/12/11 07:03:27;;;;;;;0.60;0.57;;;;;;;;;;5076176;28;20525;-81
2023/12/11 07:05:53;;;;;;;0.80;0.70;;;;;;;;;;5075730;28;20384;-81
2023/12/11 07:08:20;;;;;;;1.50;0.70;;;;;;;;;;5076283;28;20402;-81
2023/12/11 07:10:46;;;;;;;1.05;0.70;;;;;;;;;;5076572;28;20486;-81
2023/12/11 07:13:12;;;;;;;1.33;0.75;;;;;;;;;;5075659;28;20384;-81
2023/12/11 07:15:39;;;;;;;1.60;1.00;;;;;;;;;;5075496;28;20368;-81
2023/12/11 07:18:05;;;;;;;1.00;0.90;;;;;;;;;;5075924;28;20380;-81
2023/12/11 07:20:33;;;;;;;0.93;0.88;;;;;;;;;;5075367;28;20485;-81
2023/12/11 07:23:00;;;;;;;1.10;1.00;;;;;;;;;;5076124;28;20384;-81
2023/12/11 07:25:26;;;;;;;2.00;1.23;;;;;;;;;;5075762;28;20782;-81
2023/12/11 07:27:52;;;;;;;1.10;1.10;;;;;;;;;;5076105;28;20429;-81
2023/12/11 07:30:18;;;;;;;1.70;1.10;;;;;;;;;;5076000;28;20387;-81
2023/12/11 07:32:44;;;;;;;1.20;1.15;;;;;;;;;;5075805;28;20376;-81
2023/12/11 07:35:11;;;;;;;1.60;1.30;;;;;;;;;;5076016;28;20868;-81
2023/12/11 07:37:39;;;;;;;1.63;1.50;;;;;;;;;;5075815;28;20383;-80
2023/12/11 07:40:06;;;;;;;1.90;1.80;;;;;;;;;;5075291;28;20884;-81
2023/12/11 07:42:32;;;;;;;1.90;1.80;;;;;;;;;;5074945;28;20383;-81
2023/12/11 07:44:58;;;;;;;2.28;2.10;;;;;;;;;;5075276;28;20376;-81
2023/12/11 07:47:24;;;;;;;2.20;1.80;;;;;;;;;;5075378;28;21005;-81
2023/12/11 07:49:50;;;;;;;2.05;1.85;;;;;;;;;;5076352;28;20422;-81
2023/12/11 07:52:16;;;;;;;2.50;1.80;;;;;;;;;;5075200;28;20380;-81
2023/12/11 07:54:42;;;;;;;1.85;1.63;;;;;;;;;;5057602;28;20384;-80
2023/12/11 07:57:09;;;;;;;1.90;1.80;;;;;;;;;;5074921;28;20383;-80
2023/12/11 07:59:35;;;;;;;1.55;1.45;;;;;;;;;;5075602;28;20411;-80
2023/12/11 08:02:01;;;;;;;2.33;1.50;;;;;;;;;;5075663;28;20865;-81
2023/12/11 08:04:27;;;;;;;2.40;1.40;;;;;;;;;;5075541;28;20418;-81
2023/12/11 08:06:53;;;;;;;2.33;2.13;;;;;;;;;;5075615;28;20460;-81
2023/12/11 08:09:19;;;;;;;2.72;2.10;;;;;;;;;;5075371;28;20703;-81
2023/12/11 08:11:45;;;;;;;2.00;1.75;;;;;;;;;;5078515;28;20376;-81
2023/12/11 08:14:11;;;;;;;1.70;1.60;;;;;;;;;;5079183;28;20379;-80
2023/12/11 08:16:37;;;;;;;1.80;1.65;;;;;;;;;;5079478;28;20422;-81
2023/12/11 08:19:03;;;;;;;1.60;1.50;;;;;;;;;;5079686;28;20379;-80
2023/12/11 08:21:29;;;;;;;1.60;1.50;;;;;;;;;;5079180;28;20403;-80
2023/12/11 08:23:55;;;;;;;1.92;1.55;;;;;;;;;;5079270;28;20736;-80
2023/12/11 08:26:21;;;;;;;2.00;1.70;;;;;;;;;;5079348;28;20376;-80
2023/12/11 08:28:51;;;;;;;1.88;1.67;;;;;;;;;;5079319;28;20388;-80
2023/12/11 08:31:17;;;;;;;1.47;1.37;;;;;;;;;;5079181;28;20435;-80
2023/12/11 08:33:43;;;;;;;1.70;1.60;;;;;;;;;;5078893;28;20390;-80
2023/12/11 08:36:09;;;;;;;1.35;1.20;;;;;;;;;;5079037;28;20414;-80
2023/12/11 08:38:35;;;;;;;2.70;1.40;;;;;;;;;;5078766;28;20391;-80
2023/12/11 08:41:01;;;;;;;1.50;1.40;;;;;;;;;;5078345;28;20391;-80
2023/12/11 08:43:27;;;;;;;1.40;1.27;;;;;;;;;;5078663;28;20440;-80
2023/12/11 08:45:53;;;;;;;1.67;1.58;;;;;;;;;;5078590;28;20383;-80
2023/12/11 08:48:19;;;;;;;1.85;1.75;;;;;;;;;;5078248;28;20388;-81
2023/12/11 08:50:47;;;;;;;2.10;2.00;;;;;;;;;;5078710;28;20450;-80
2023/12/11 08:53:14;;;;;;;2.60;2.13;;;;;;;;;;5068491;28;20378;-80
2023/12/11 08:55:40;;;;;;;3.00;2.25;;;;;;;;;;5058360;28;20515;-80
2023/12/11 08:58:06;;;;;;;3.47;2.75;;;;;;;;;;5058575;28;20424;-81
2023/12/11 09:00:32;;;;;;;3.80;3.50;;;;;;;;;;5060541;28;20792;-81
2023/12/11 09:02:58;;;;;;;3.50;3.05;;;;;;;;;;5077635;28;20380;-81
2023/12/11 09:05:24;;;;;;;4.50;3.97;;;;;;;;;;5077820;28;20378;-81
2023/12/11 09:07:50;;;;;;;3.28;3.00;;;;;;;;;;5078914;28;20372;-81
2023/12/11 09:10:16;;;;;;;3.08;2.70;;;;;;;;;;5078081;28;20471;-81
2023/12/11 09:12:42;;;;;;;2.70;2.50;;;;;;;;;;5078171;28;20375;-81
2023/12/11 09:15:08;;;;;;;3.13;2.83;;;;;;;;;;5077597;28;20378;-80
2023/12/11 09:17:34;;;;;;;4.13;3.83;;;;;;;;;;5078483;28;20444;-81
2023/12/11 09:20:04;;;;;;;3.58;3.28;;;;;;;;;;5078152;28;20858;-81
2023/12/11 09:22:30;;;;;;;3.80;3.50;;;;;;;;;;5077716;28;21146;-80
2023/12/11 09:24:56;;;;;;;3.73;3.43;;;;;;;;;;5078611;28;20785;-81
2023/12/11 09:27:23;;;;;;;3.80;3.50;;;;;;;;;;5077824;28;20390;-81
2023/12/11 09:29:49;;;;;;;4.22;3.85;;;;;;;;;;5077787;28;20368;-80
2023/12/11 09:32:18;;;;;;;5.47;4.43;;;;;;;;;;5077302;28;20478;-80
2023/12/11 09:34:44;;;;;;;3.75;3.45;;;;;;;;;;5077661;28;20406;-80
2023/12/11 09:37:10;;;;;;;3.80;3.50;;;;;;;;;;5077717;28;20390;-82
2023/12/11 09:39:36;;;;;;;2.63;2.40;;;;;;;;;;5077551;28;20376;-81
2023/12/11 09:42:02;;;;;;;2.60;2.40;;;;;;;;;;5077574;28;20395;-81
2023/12/11 09:44:28;;;;;;;2.05;1.70;;;;;;;;;;5077635;28;20384;-82
2023/12/11 09:47:01;;;;;;;2.20;1.90;;;;;;;;;;5077119;28;20494;-81
2023/12/11 09:49:28;;;;;;;3.17;1.75;;;;;;;;;;5077268;28;20392;-81
2023/12/11 09:51:54;;;;;;;1.83;1.48;;;;;;;;;;5077256;28;20380;-81
2023/12/11 09:54:20;;;;;;;1.88;1.35;;;;;;;;;;5077093;28;20390;-81
2023/12/11 09:56:46;;;;;;;1.85;1.30;;;;;;;;;;5077155;28;20375;-81
2023/12/11 09:59:13;;;;;;;1.92;1.20;;;;;;;;;;5076993;28;20466;-81
2023/12/11 10:01:39;;;;;;;2.10;1.33;;;;;;;;;;5077017;28;20391;-81
2023/12/11 10:04:06;;;;;;;1.60;1.10;;;;;;;;;;5076303;28;20384;-81
2023/12/11 10:06:32;;;;;;;1.53;1.30;;;;;;;;;;5077040;28;20793;-81
2023/12/11 10:08:58;;;;;;;2.00;1.50;;;;;;;;;;5077918;28;20845;-81
2023/12/11 10:11:26;;;;;;;2.05;1.50;;;;;;;;;;5076986;28;20388;-81
2023/12/11 10:13:52;;;;;;;1.67;1.38;;;;;;;;;;5077180;28;20432;-81
2023/12/11 10:16:28;;;;;;;2.27;1.67;;;;;;;;;;5076965;28;20376;-81
2023/12/11 10:18:55;;;;;;;2.03;1.73;;;;;;;;;;5077219;28;20428;-81
2023/12/11 10:21:22;;;;;;;2.83;1.58;;;;;;;;;;5076215;28;20399;-80
2023/12/11 10:24:04;;;;;;;1.77;1.40;;;;;;;;;;5074642;28;20403;-80
2023/12/11 10:26:36;;;;;;;2.17;1.20;;;;;;;;;;5076398;28;20368;-80
2023/12/11 10:29:21;;;;;;;1.30;1.10;;;;;;;;;;5076483;28;20383;-80
2023/12/11 10:31:48;;;;;;;0.95;0.80;;;;;;;;;;5076454;28;20406;-80
2023/12/11 10:34:14;;;;;;;2.20;1.40;;;;;;;;;;5075468;28;20780;-80
2023/12/11 10:36:50;;;;;;;2.30;1.45;;;;;;;;;;5076119;28;20413;-80
2023/12/11 10:39:16;;;;;;;3.08;1.40;;;;;;;;;;5076991;28;20790;-81
2023/12/11 10:41:45;;;;;;;1.23;1.10;;;;;;;;;;5076482;28;20395;-81
2023/12/11 10:44:27;;;;;;;2.28;1.40;;;;;;;;;;5076192;28;20382;-81
2023/12/11 10:46:54;;;;;;;1.88;1.38;;;;;;;;;;5076171;28;20392;-81
2023/12/11 10:49:22;;;;;;;2.17;1.10;;;;;;;;;;5075769;28;20388;-80
2023/12/11 10:51:48;;;;;;;1.10;0.98;;;;;;;;;;5076052;28;20405;-80
2023/12/11 10:54:14;;;;;;;1.77;1.00;;;;;;;;;;5075694;28;20808;-80
2023/12/11 10:56:43;;;;;;;2.83;1.23;;;;;;;;;;5074110;28;20808;-80
2023/12/11 10:59:11;;;;;;;1.67;1.00;;;;;;;;;;5073773;28;20462;-81
2023/12/11 11:01:38;;;;;;;1.63;1.08;;;;;;;;;;5075356;28;20429;-81
2023/12/11 11:04:04;;;;;;;1.10;0.80;;;;;;;;;;5075550;28;20842;-81
2023/12/11 11:06:32;;;;;;;1.75;1.10;;;;;;;;;;5075443;28;21073;-81
2023/12/11 11:09:11;;;;;;;1.45;0.73;;;;;;;;;;5075317;28;20376;-81
2023/12/11 11:11:41;;;;;;;1.88;1.20;;;;;;;;;;5075198;28;20869;-81
2023/12/11 11:14:25;;;;;;;2.03;1.30;;;;;;;;;;5074935;28;20376;-81
2023/12/11 11:16:52;;;;;;;1.70;0.90;;;;;;;;;;5075139;28;20375;-81
2023/12/11 11:19:18;;;;;;;1.80;0.80;;;;;;;;;;5075580;28;20372;-80
2023/12/11 11:22:00;;;;;;;2.47;0.70;;;;;;;;;;5075399;28;20916;-81
2023/12/11 11:24:26;;;;;;;1.00;0.70;;;;;;;;;;5076362;28;20380;-81
2023/12/11 11:26:52;;;;;;;1.30;0.60;;;;;;;;;;5074497;28;20793;-81
2023/12/11 11:29:39;;;;;;;1.13;0.60;;;;;;;;;;5075780;28;20411;-81
2023/12/11 11:32:05;;;;;;;1.23;0.77;;;;;;;;;;5075731;28;20861;-81
2023/12/11 11:34:40;;;;;;;2.97;0.95;;;;;;;;;;5075320;28;20383;-80
2023/12/11 11:37:14;;;;;;;2.60;1.10;;;;;;;;;;5075145;28;20391;-80
2023/12/11 11:39:59;;;;;;;2.83;1.20;;;;;;;;;;5075232;28;20387;-80
2023/12/11 11:42:35;;;;;;;2.33;1.10;;;;;;;;;;5075679;28;20395;-80
2023/12/11 11:45:05;;;;;;;3.13;1.00;;;;;;;;;;5076324;28;20376;-80
2023/12/11 11:47:31;;;;;;;1.35;0.85;;;;;;;;;;5079415;28;20404;-80
2023/12/11 11:50:07;;;;;;;2.77;1.10;;;;;;;;;;5078179;28;20454;-80
2023/12/11 11:52:35;;;;;;;1.63;1.10;;;;;;;;;;5077359;28;20414;-80
2023/12/11 11:55:11;;;;;;;1.23;0.90;;;;;;;;;;5079019;28;20372;-80
2023/12/11 11:57:37;;;;;;;2.15;1.27;;;;;;;;;;5079340;28;20450;-80
2023/12/11 12:00:06;;;;;;;2.08;0.90;;;;;;;;;;5078805;28;20371;-80
2023/12/11 12:02:31;;;;;;;2.13;1.10;;;;;;;;;;5079425;28;20391;-80
2023/12/11 12:05:06;;;;;;;4.30;1.08;;;;;;;;;;5079598;28;20380;-80
2023/12/11 12:07:32;;;;;;;1.13;0.73;;;;;;;;;;5079729;28;20706;-80
2023/12/11 12:09:59;;;;;;;1.03;0.90;;;;;;;;;;5078522;28;20442;-80
2023/12/11 12:12:28;;;;;;;1.90;0.88;;;;;;;;;;5079037;28;20388;-80
2023/12/11 12:15:02;;;;;;;1.30;0.90;;;;;;;;;;5078731;28;20383;-80
2023/12/11 12:17:28;;;;;;;1.40;0.80;;;;;;;;;;5078376;28;20456;-80
2023/12/11 12:19:53;;;;;;;1.58;0.68;;;;;;;;;;5078278;28;20907;-80
2023/12/11 12:22:19;;;;;;;1.00;0.63;;;;;;;;;;5078191;28;20445;-80
2023/12/11 12:24:48;;;;;;;2.17;0.80;;;;;;;;;;5078100;28;20380;-80
2023/12/11 12:27:15;;;;;;;1.67;0.90;;;;;;;;;;5078559;28;20872;-80
2023/12/11 12:29:42;;;;;;;1.33;0.82;;;;;;;;;;5078624;28;20404;-80
2023/12/11 12:32:09;;;;;;;1.15;0.70;;;;;;;;;;5077859;28;20899;-80
2023/12/11 12:34:35;;;;;;;1.23;0.60;;;;;;;;;;5077438;28;20411;-81
2023/12/11 12:37:02;;;;;;;1.98;0.60;;;;;;;;;;5077708;28;20426;-80
2023/12/11 12:39:28;;;;;;;1.75;0.90;;;;;;;;;;5077771;28;20429;-81
2023/12/11 12:41:54;;;;;;;1.42;1.10;;;;;;;;;;5078315;28;20403;-81
2023/12/11 12:44:20;;;;;;;1.30;1.08;;;;;;;;;;5078133;28;20387;-81
2023/12/11 12:46:47;;;;;;;2.13;1.52;;;;;;;;;;5077518;28;20407;-81
2023/12/11 12:49:16;;;;;;;1.38;1.27;;;;;;;;;;5077599;28;20438;-81
2023/12/11 12:51:50;;;;;;;2.00;1.70;;;;;;;;;;5078347;28;20430;-81
2023/12/11 12:54:16;;;;;;;1.80;1.40;;;;;;;;;;5075667;28;20388;-80
2023/12/11 12:56:44;;;;;;;2.17;1.45;;;;;;;;;;5076612;28;20872;-80
2023/12/11 12:59:10;;;;;;;1.75;1.00;;;;;;;;;;5077725;28;20380;-81
2023/12/11 13:01:37;;;;;;;2.10;1.20;;;;;;;;;;5077642;28;20745;-81
2023/12/11 13:04:04;;;;;;;2.22;1.20;;;;;;;;;;5077765;28;20380;-81
2023/12/11 13:06:30;;;;;;;1.80;0.90;;;;;;;;;;5078106;28;20367;-81
2023/12/11 13:08:56;;;;;;;2.00;0.80;;;;;;;;;;5078004;28;20372;-80
2023/12/11 13:11:22;;;;;;;1.33;0.70;;;;;;;;;;5077543;28;20402;-81
2023/12/11 13:13:52;;;;;;;0.90;0.60;;;;;;;;;;5077688;28;20379;-81
2023/12/11 13:16:18;;;;;;;1.63;0.65;;;;;;;;;;5077054;28;20384;-81
2023/12/11 13:18:45;;;;;;;1.67;0.60;;;;;;;;;;5077509;28;20379;-81
2023/12/11 13:21:11;;;;;;;1.50;0.70;;;;;;;;;;5077492;28;20399;-81
2023/12/11 13:23:37;;;;;;;1.17;0.60;;;;;;;;;;5077220;28;20383;-81
2023/12/11 13:26:04;;;;;;;1.00;0.50;;;;;;;;;;5077438;28;20379;-80
2023/12/11 13:28:30;;;;;;;0.80;0.57;;;;;;;;;;5077094;28;20372;-81
2023/12/11 13:30:56;;;;;;;0.97;0.63;;;;;;;;;;5077162;28;20380;-81
2023/12/11 13:33:22;;;;;;;0.60;0.50;;;;;;;;;;5077221;28;20458;-81
2023/12/11 13:35:50;;;;;;;1.75;0.52;;;;;;;;;;5077339;28;20412;-81
2023/12/11 13:38:15;;;;;;;0.90;0.60;;;;;;;;;;5077254;28;20449;-81
2023/12/11 13:40:41;;;;;;;1.23;0.60;;;;;;;;;;5075112;28;20414;-81
2023/12/11 13:43:07;;;;;;;1.75;0.75;;;;;;;;;;5067305;28;20372;-81
2023/12/11 13:45:33;;;;;;;0.93;0.70;;;;;;;;;;5076343;28;20375;-81
2023/12/11 13:47:59;;;;;;;2.00;0.70;;;;;;;;;;5076478;28;20450;-81
2023/12/11 13:50:25;;;;;;;3.10;0.90;;;;;;;;;;5076633;28;20391;-81
2023/12/11 13:52:51;;;;;;;1.38;0.85;;;;;;;;;;5076916;28;20414;-81
2023/12/11 13:55:17;;;;;;;2.53;0.70;;;;;;;;;;5076032;28;20877;-81
2023/12/11 13:57:43;;;;;;;1.50;0.90;;;;;;;;;;5076467;28;20391;-81
2023/12/11 14:00:10;;;;;;;1.92;0.70;;;;;;;;;;5076343;28;20387;-81
2023/12/11 14:02:35;;;;;;;1.25;0.60;;;;;;;;;;5077031;28;20887;-81
2023/12/11 14:05:01;;;;;;;0.75;0.65;;;;;;;;;;5076903;28;20368;-80
2023/12/11 14:07:27;;;;;;;0.95;0.60;;;;;;;;;;5076920;28;20429;-81
2023/12/11 14:09:53;;;;;;;1.00;0.65;;;;;;;;;;5076931;28;20852;-81
2023/12/11 14:12:20;;;;;;;0.98;0.50;;;;;;;;;;5077016;28;20387;-80
2023/12/11 14:14:48;;;;;;;0.80;0.32;;;;;;;;;;5077052;28;20433;-80
2023/12/11 14:17:14;;;;;;;1.13;0.52;;;;;;;;;;5076213;28;20403;-80
2023/12/11 14:19:40;;;;;;;0.75;0.40;;;;;;;;;;5076844;28;20384;-81
2023/12/11 14:22:06;;;;;;;1.00;0.40;;;;;;;;;;5076393;28;20837;-81
2023/12/11 14:24:32;;;;;;;0.30;0.22;;;;;;;;;;5076413;28;20368;-81
2023/12/11 14:26:58;;;;;;;0.80;0.40;;;;;;;;;;5076211;28;20457;-81
2023/12/11 14:29:24;;;;;;;0.73;0.40;;;;;;;;;;5076076;28;20372;-81
2023/12/11 14:31:51;;;;;;;0.30;0.30;;;;;;;;;;5076217;28;20380;-81
2023/12/11 14:34:17;;;;;;;0.80;0.40;;;;;;;;;;5075852;28;20446;-81
2023/12/11 14:36:43;;;;;;;0.50;0.50;;;;;;;;;;5075747;28;20410;-81
2023/12/11 14:39:09;;;;;;;0.73;0.40;;;;;;;;;;5076120;28;20458;-81
2023/12/11 14:41:40;;;;;;;1.08;0.60;;;;;;;;;;5075412;28;21252;-81